createdAt,value
2019-05-18T00:01:05.665Z,12.40
2019-05-18T00:03:35.455Z,12.40
2019-05-18T00:06:05.792Z,12.30
2019-05-18T00:08:35.459Z,12.30
2019-05-18T00:11:05.503Z,12.30
2019-05-18T00:13:35.030Z,12.30
2019-05-18T00:16:04.358Z,12.30
2019-05-18T00:18:34.786Z,12.30
2019-05-18T00:21:04.234Z,12.20
2019-05-18T00:23:33.984Z,12.20
2019-05-18T00:26:03.567Z,12.20
2019-05-18T00:28:32.978Z,12.10
2019-05-18T00:31:02.488Z,12.20
2019-05-18T00:33:32.141Z,12.10
2019-05-18T00:36:01.726Z,12.20
2019-05-18T00:38:31.136Z,12.10
2019-05-18T00:41:00.587Z,12.00
2019-05-18T00:43:30.367Z,12.00
2019-05-18T00:45:59.746Z,12.00
2019-05-18T00:48:29.300Z,12.00
2019-05-18T00:50:58.988Z,12.00
2019-05-18T00:53:28.460Z,12.00
2019-05-18T00:55:57.807Z,12.00
2019-05-18T00:58:28.952Z,11.90
2019-05-18T01:00:58.359Z,11.90
2019-05-18T01:03:28.091Z,11.80
2019-05-18T01:05:57.510Z,11.80
2019-05-18T01:08:26.956Z,11.70
2019-05-18T01:10:56.795Z,11.70
2019-05-18T01:13:26.160Z,11.70
2019-05-18T01:15:55.760Z,11.70
2019-05-18T01:18:27.650Z,11.70
2019-05-18T01:20:58.910Z,11.70
2019-05-18T01:23:28.240Z,11.70
2019-05-18T01:25:57.983Z,11.60
2019-05-18T01:28:27.543Z,11.60
2019-05-18T01:30:56.948Z,11.60
2019-05-18T01:33:26.719Z,11.60
2019-05-18T01:35:56.140Z,11.60
2019-05-18T01:38:25.465Z,11.60
2019-05-18T01:40:55.020Z,11.50
2019-05-18T01:43:24.358Z,11.50
2019-05-18T01:45:53.998Z,11.50
2019-05-18T01:48:23.483Z,11.50
2019-05-18T01:50:53.104Z,11.50
2019-05-18T01:53:22.510Z,11.50
2019-05-18T01:55:54.045Z,11.60
2019-05-18T01:58:24.451Z,11.50
2019-05-18T02:00:54.206Z,11.50
2019-05-18T02:03:25.960Z,11.50
2019-05-18T02:05:55.231Z,11.40
2019-05-18T02:08:24.576Z,11.30
2019-05-18T02:10:54.421Z,11.30
2019-05-18T02:13:23.904Z,11.30
2019-05-18T02:15:53.587Z,11.30
2019-05-18T02:18:29.156Z,11.30
2019-05-18T02:20:54.478Z,11.30
2019-05-18T02:23:23.863Z,11.20
2019-05-18T02:25:53.355Z,11.20
2019-05-18T02:28:24.474Z,11.30
2019-05-18T02:30:55.191Z,11.30
2019-05-18T02:33:25.060Z,11.30
2019-05-18T02:35:54.515Z,11.30
2019-05-18T02:38:23.985Z,11.20
2019-05-18T02:40:53.552Z,11.10
2019-05-18T02:43:22.978Z,11.10
2019-05-18T02:45:52.542Z,11.00
2019-05-18T02:48:21.893Z,11.10
2019-05-18T02:50:51.258Z,11.10
2019-05-18T02:53:20.963Z,11.10
2019-05-18T02:55:50.344Z,11.00
2019-05-18T02:58:19.940Z,11.00
2019-05-18T03:00:50.185Z,11.00
2019-05-18T03:03:21.351Z,10.90
2019-05-18T03:05:50.694Z,10.90
2019-05-18T03:08:20.807Z,10.90
2019-05-18T03:10:50.280Z,10.90
2019-05-18T03:13:19.780Z,10.90
2019-05-18T03:15:49.339Z,10.90
2019-05-18T03:18:18.796Z,10.90
2019-05-18T03:20:48.269Z,10.90
2019-05-18T03:23:17.820Z,10.90
2019-05-18T03:25:47.483Z,11.00
2019-05-18T03:28:16.949Z,10.90
2019-05-18T03:30:46.306Z,10.80
2019-05-18T03:33:15.829Z,10.80
2019-05-18T03:35:46.986Z,10.90
2019-05-18T03:38:16.630Z,10.90
2019-05-18T03:40:46.851Z,10.80
2019-05-18T03:43:16.581Z,10.80
2019-05-18T03:45:46.206Z,10.80
2019-05-18T03:48:15.538Z,10.80
2019-05-18T03:50:45.061Z,10.80
2019-05-18T03:53:18.005Z,10.80
2019-05-18T03:55:45.624Z,10.70
2019-05-18T03:58:15.134Z,10.80
2019-05-18T04:00:45.250Z,10.80
2019-05-18T04:03:14.651Z,10.70
2019-05-18T04:05:44.056Z,10.80
2019-05-18T04:08:13.942Z,10.70
2019-05-18T04:10:43.324Z,10.80
2019-05-18T04:13:12.871Z,10.70
2019-05-18T04:15:42.404Z,10.70
2019-05-18T04:18:13.016Z,10.70
2019-05-18T04:20:42.412Z,10.70
2019-05-18T04:23:11.908Z,10.70
2019-05-18T04:25:43.923Z,10.80
2019-05-18T04:28:12.501Z,10.90
2019-05-18T04:30:42.306Z,10.80
2019-05-18T04:33:11.787Z,10.80
2019-05-18T04:35:41.345Z,10.80
2019-05-18T04:38:10.748Z,10.80
2019-05-18T04:40:40.133Z,10.80
2019-05-18T04:43:09.522Z,10.90
2019-05-18T04:45:38.922Z,11.00
2019-05-18T04:48:08.432Z,11.00
2019-05-18T04:50:38.453Z,11.10
2019-05-18T04:53:07.776Z,11.10
2019-05-18T04:55:37.732Z,11.10
2019-05-18T04:58:07.111Z,11.10
2019-05-18T05:00:36.571Z,11.20
2019-05-18T05:03:05.985Z,11.70
2019-05-18T05:05:35.466Z,12.00
2019-05-18T05:08:05.126Z,12.10
2019-05-18T05:10:34.586Z,12.20
2019-05-18T05:13:03.996Z,12.00
2019-05-18T05:15:33.451Z,11.80
2019-05-18T05:18:03.166Z,11.70
2019-05-18T05:20:32.560Z,11.70
2019-05-18T05:23:03.003Z,11.60
2019-05-18T05:25:32.427Z,11.60
2019-05-18T05:28:02.649Z,11.70
2019-05-18T05:30:31.992Z,11.70
2019-05-18T05:33:01.645Z,11.70
2019-05-18T05:35:31.012Z,11.80
2019-05-18T05:38:02.578Z,11.80
2019-05-18T05:40:32.024Z,11.80
2019-05-18T05:43:01.448Z,11.80
2019-05-18T05:45:30.954Z,11.90
2019-05-18T05:48:00.402Z,12.00
2019-05-18T05:50:36.068Z,12.00
2019-05-18T05:53:00.953Z,12.00
2019-05-18T05:55:30.400Z,12.10
2019-05-18T05:57:59.867Z,12.20
2019-05-18T06:00:29.246Z,12.30
2019-05-18T06:02:58.758Z,12.40
2019-05-18T06:05:28.685Z,12.40
2019-05-18T06:07:58.251Z,12.50
2019-05-18T06:10:27.754Z,12.50
2019-05-18T06:12:57.320Z,12.60
2019-05-18T06:15:26.823Z,12.60
2019-05-18T06:17:56.378Z,12.70
2019-05-18T06:20:25.982Z,12.70
2019-05-18T06:22:55.343Z,12.80
2019-05-18T06:25:24.758Z,12.80
2019-05-18T06:27:54.305Z,12.90
2019-05-18T06:30:24.098Z,12.90
2019-05-18T06:32:53.467Z,12.90
2019-05-18T06:35:22.919Z,13.00
2019-05-18T06:37:52.333Z,13.10
2019-05-18T06:40:21.971Z,13.20
2019-05-18T06:42:51.382Z,13.20
2019-05-18T06:45:20.928Z,13.30
2019-05-18T06:47:50.492Z,13.40
2019-05-18T06:50:25.679Z,13.50
2019-05-18T06:52:55.165Z,13.50
2019-05-18T06:55:25.643Z,13.60
2019-05-18T06:57:59.350Z,13.70
2019-05-18T07:00:29.704Z,13.70
2019-05-18T07:02:59.781Z,13.80
2019-05-18T07:05:29.266Z,13.80
2019-05-18T07:07:58.866Z,13.90
2019-05-18T07:10:28.632Z,14.00
2019-05-18T07:12:58.079Z,14.10
2019-05-18T07:15:27.728Z,14.10
2019-05-18T07:17:57.555Z,14.10
2019-05-18T07:20:26.943Z,14.20
2019-05-18T07:22:56.567Z,14.30
2019-05-18T07:25:26.293Z,14.30
2019-05-18T07:27:56.008Z,14.30
2019-05-18T07:30:25.441Z,14.30
2019-05-18T07:32:54.956Z,14.50
2019-05-18T07:35:25.215Z,14.50
2019-05-18T07:37:54.670Z,14.60
2019-05-18T07:40:24.256Z,14.70
2019-05-18T07:42:53.781Z,14.70
2019-05-18T07:45:23.161Z,14.80
2019-05-18T07:47:52.639Z,14.90
2019-05-18T07:50:22.232Z,14.90
2019-05-18T07:52:51.781Z,14.90
2019-05-18T07:55:21.266Z,15.00
2019-05-18T07:57:51.701Z,15.00
2019-05-18T08:00:21.562Z,15.10
2019-05-18T08:02:50.962Z,15.20
2019-05-18T08:05:20.681Z,15.20
2019-05-18T08:07:50.851Z,15.20
2019-05-18T08:10:35.003Z,15.30
2019-05-18T08:13:07.223Z,15.30
2019-05-18T08:15:36.883Z,15.40
2019-05-18T08:18:06.586Z,15.40
2019-05-18T08:20:36.640Z,15.50
2019-05-18T08:23:07.415Z,15.50
2019-05-18T08:25:36.892Z,15.60
2019-05-18T08:28:06.312Z,15.70
2019-05-18T08:30:35.858Z,15.70
2019-05-18T08:33:05.486Z,15.80
2019-05-18T08:35:35.887Z,15.90
2019-05-18T08:38:05.477Z,15.90
2019-05-18T08:40:35.130Z,15.90
2019-05-18T08:43:04.656Z,16.00
2019-05-18T08:45:34.052Z,16.10
2019-05-18T08:48:03.700Z,16.20
2019-05-18T08:50:33.391Z,16.20
2019-05-18T08:53:03.008Z,16.30
2019-05-18T08:55:32.556Z,16.30
2019-05-18T08:58:02.253Z,16.40
2019-05-18T09:00:31.746Z,16.40
2019-05-18T09:03:02.649Z,16.40
2019-05-18T09:05:32.484Z,16.50
2019-05-18T09:08:02.083Z,16.60
2019-05-18T09:10:31.742Z,16.60
2019-05-18T09:13:01.117Z,16.70
2019-05-18T09:15:30.503Z,16.80
2019-05-18T09:18:00.202Z,16.80
2019-05-18T09:20:29.812Z,16.90
2019-05-18T09:22:59.553Z,16.90
2019-05-18T09:25:29.250Z,16.90
2019-05-18T09:28:00.391Z,17.00
2019-05-18T09:30:30.027Z,17.00
2019-05-18T09:32:59.446Z,17.00
2019-05-18T09:35:29.085Z,17.10
2019-05-18T09:37:58.568Z,17.10
2019-05-18T09:40:28.230Z,17.20
2019-05-18T09:42:57.690Z,17.20
2019-05-18T09:45:27.421Z,17.30
2019-05-18T09:47:57.024Z,17.30
2019-05-18T09:50:26.538Z,17.40
2019-05-18T09:52:56.314Z,17.50
2019-05-18T09:55:26.535Z,17.50
2019-05-18T09:57:56.706Z,17.50
2019-05-18T10:00:27.055Z,17.50
2019-05-18T10:02:56.536Z,17.50
2019-05-18T10:05:26.140Z,17.60
2019-05-18T10:07:58.722Z,17.70
2019-05-18T10:10:28.228Z,17.70
2019-05-18T10:12:57.797Z,17.80
2019-05-18T10:15:28.044Z,17.90
2019-05-18T10:17:57.675Z,18.00
2019-05-18T10:20:27.291Z,18.10
2019-05-18T10:23:11.732Z,18.10
2019-05-18T10:25:28.994Z,18.10
2019-05-18T10:28:00.451Z,18.20
2019-05-18T10:30:32.654Z,18.20
2019-05-18T10:33:02.449Z,18.20
2019-05-18T10:35:32.300Z,18.20
2019-05-18T10:38:01.759Z,18.30
2019-05-18T10:40:31.302Z,18.40
2019-05-18T10:43:00.970Z,18.40
2019-05-18T10:45:32.099Z,18.40
2019-05-18T10:48:01.785Z,18.50
2019-05-18T10:50:31.465Z,18.60
2019-05-18T10:53:01.568Z,18.60
2019-05-18T10:55:31.438Z,18.60
2019-05-18T10:58:01.419Z,18.50
2019-05-18T11:00:31.456Z,18.40
2019-05-18T11:03:05.000Z,18.60
2019-05-18T11:05:34.955Z,18.60
2019-05-18T11:08:05.017Z,18.60
2019-05-18T11:10:34.964Z,18.70
2019-05-18T11:13:04.695Z,18.70
2019-05-18T11:15:34.290Z,18.70
2019-05-18T11:18:06.449Z,18.80
2019-05-18T11:20:35.965Z,18.80
2019-05-18T11:23:05.652Z,18.90
2019-05-18T11:25:35.212Z,19.00
2019-05-18T11:28:05.400Z,19.00
2019-05-18T11:30:35.411Z,19.10
2019-05-18T11:33:04.928Z,19.20
2019-05-18T11:35:34.550Z,19.40
2019-05-18T11:38:03.898Z,19.40
2019-05-18T11:40:33.446Z,19.40
2019-05-18T11:43:03.038Z,19.40
2019-05-18T11:45:32.813Z,19.40
2019-05-18T11:48:02.452Z,19.50
2019-05-18T11:50:31.937Z,19.50
2019-05-18T11:53:01.668Z,19.50
2019-05-18T11:55:49.810Z,19.50
2019-05-18T11:58:19.437Z,19.50
2019-05-18T12:00:49.361Z,19.50
2019-05-18T12:03:18.962Z,19.50
2019-05-18T12:05:48.433Z,19.60
2019-05-18T12:08:19.244Z,19.70
2019-05-18T12:10:48.965Z,19.70
2019-05-18T12:13:18.916Z,19.80
2019-05-18T12:15:48.566Z,19.80
2019-05-18T12:18:18.061Z,19.90
2019-05-18T12:20:48.315Z,20.00
2019-05-18T12:23:18.126Z,20.00
2019-05-18T12:25:50.637Z,20.10
2019-05-18T12:28:19.276Z,20.10
2019-05-18T12:30:49.499Z,20.20
2019-05-18T12:33:19.141Z,20.30
2019-05-18T12:35:48.581Z,20.40
2019-05-18T12:38:18.668Z,20.50
2019-05-18T12:40:48.053Z,20.60
2019-05-18T12:43:17.444Z,20.50
2019-05-18T12:45:47.143Z,20.50
2019-05-18T12:48:16.657Z,20.50
2019-05-18T12:50:46.105Z,20.50
2019-05-18T12:53:17.666Z,20.60
2019-05-18T12:55:46.842Z,20.60
2019-05-18T12:58:16.235Z,20.70
2019-05-18T13:00:46.424Z,20.80
2019-05-18T13:03:18.404Z,20.90
2019-05-18T13:05:48.679Z,21.00
2019-05-18T13:08:18.133Z,21.00
2019-05-18T13:10:48.337Z,21.10
2019-05-18T13:13:18.015Z,21.10
2019-05-18T13:15:47.705Z,21.00
2019-05-18T13:18:17.919Z,20.90
2019-05-18T13:20:47.724Z,20.80
2019-05-18T13:23:17.196Z,20.60
2019-05-18T13:25:47.587Z,20.50
2019-05-18T13:28:17.354Z,20.40
2019-05-18T13:30:46.766Z,20.40
2019-05-18T13:33:16.271Z,20.30
2019-05-18T13:35:45.977Z,20.10
2019-05-18T13:38:15.435Z,20.10
2019-05-18T13:40:44.828Z,20.10
2019-05-18T13:43:14.460Z,20.10
2019-05-18T13:45:43.951Z,20.10
2019-05-18T13:48:13.617Z,20.00
2019-05-18T13:50:44.863Z,19.90
2019-05-18T13:53:15.336Z,20.00
2019-05-18T13:55:44.821Z,19.90
2019-05-18T13:58:14.894Z,19.90
2019-05-18T14:00:44.709Z,19.90
2019-05-18T14:03:14.254Z,19.90
2019-05-18T14:05:43.908Z,19.90
2019-05-18T14:08:15.798Z,20.00
2019-05-18T14:10:44.832Z,20.10
2019-05-18T14:13:14.514Z,20.10
2019-05-18T14:15:44.500Z,20.10
2019-05-18T14:18:14.165Z,20.10
2019-05-18T14:20:44.040Z,20.10
2019-05-18T14:23:14.792Z,20.10
2019-05-18T14:25:46.117Z,20.00
2019-05-18T14:28:15.795Z,20.00
2019-05-18T14:30:45.803Z,20.00
2019-05-18T14:33:15.278Z,20.00
2019-05-18T14:35:45.020Z,20.00
2019-05-18T14:38:14.506Z,20.00
2019-05-18T14:40:44.164Z,20.20
2019-05-18T14:43:13.768Z,20.50
2019-05-18T14:45:43.346Z,20.60
2019-05-18T14:48:13.240Z,20.70
2019-05-18T14:50:42.798Z,20.80
2019-05-18T14:53:12.519Z,21.00
2019-05-18T14:55:42.066Z,21.10
2019-05-18T14:58:11.607Z,21.20
2019-05-18T15:00:41.355Z,21.30
2019-05-18T15:03:10.975Z,21.40
2019-05-18T15:05:40.806Z,21.50
2019-05-18T15:08:11.590Z,21.50
2019-05-18T15:10:41.297Z,21.60
2019-05-18T15:13:10.788Z,21.60
2019-05-18T15:15:40.201Z,21.70
2019-05-18T15:18:09.646Z,21.90
2019-05-18T15:20:39.236Z,22.00
2019-05-18T15:23:14.107Z,22.00
2019-05-18T15:25:50.700Z,22.10
2019-05-18T15:28:15.613Z,22.20
2019-05-18T15:30:46.288Z,22.20
2019-05-18T15:33:16.029Z,22.30
2019-05-18T15:35:45.744Z,22.30
2019-05-18T15:38:15.319Z,22.30
2019-05-18T15:40:44.959Z,22.20
2019-05-18T15:43:15.733Z,22.30
2019-05-18T15:45:46.021Z,22.40
2019-05-18T15:48:15.845Z,22.50
2019-05-18T15:50:47.395Z,22.60
2019-05-18T15:53:17.351Z,22.80
2019-05-18T15:55:46.901Z,22.70
2019-05-18T15:58:16.576Z,22.70
2019-05-18T16:00:46.218Z,22.80
2019-05-18T16:03:16.007Z,23.10
2019-05-18T16:05:45.408Z,23.20
2019-05-18T16:08:15.732Z,23.40
2019-05-18T16:10:45.408Z,23.40
2019-05-18T16:13:14.874Z,23.40
2019-05-18T16:15:44.323Z,23.30
2019-05-18T16:18:13.889Z,23.30
2019-05-18T16:20:43.447Z,23.20
2019-05-18T16:23:12.830Z,23.20
2019-05-18T16:25:42.250Z,23.40
2019-05-18T16:28:11.693Z,23.40
2019-05-18T16:30:41.185Z,23.50
2019-05-18T16:33:11.077Z,23.50
2019-05-18T16:35:40.822Z,23.70
2019-05-18T16:38:10.239Z,23.70
2019-05-18T16:40:40.164Z,23.60
2019-05-18T16:43:09.995Z,23.60
2019-05-18T16:45:39.678Z,23.60
2019-05-18T16:48:09.181Z,23.50
2019-05-18T16:50:38.556Z,23.60
2019-05-18T16:53:08.046Z,23.60
2019-05-18T16:55:37.623Z,23.80
2019-05-18T16:58:07.314Z,23.90
2019-05-18T17:03:19.705Z,23.70
2019-05-18T17:05:50.215Z,23.60
2019-05-18T17:08:20.385Z,23.50
2019-05-18T17:10:50.030Z,23.20
2019-05-18T17:13:19.643Z,23.00
2019-05-18T17:15:49.170Z,23.00
2019-05-18T17:18:18.755Z,22.80
2019-05-18T17:20:48.239Z,22.60
2019-05-18T17:23:17.671Z,22.70
2019-05-18T17:25:47.109Z,22.70
2019-05-18T17:28:16.474Z,22.60
2019-05-18T17:30:45.936Z,22.50
2019-05-18T17:33:15.304Z,22.50
2019-05-18T17:35:59.341Z,22.40
2019-05-18T17:38:16.752Z,22.30
2019-05-18T17:40:46.251Z,22.20
2019-05-18T17:43:15.667Z,22.10
2019-05-18T17:45:45.143Z,22.20
2019-05-18T17:48:14.764Z,22.10
2019-05-18T17:50:44.556Z,22.10
2019-05-18T17:53:14.663Z,22.00
2019-05-18T17:55:44.278Z,22.00
2019-05-18T17:58:14.062Z,21.90
2019-05-18T18:00:44.364Z,21.80
2019-05-18T18:03:14.101Z,21.60
2019-05-18T18:05:43.735Z,21.60
2019-05-18T18:08:13.422Z,21.50
2019-05-18T18:10:43.042Z,21.50
2019-05-18T18:13:12.402Z,21.30
2019-05-18T18:15:42.199Z,21.20
2019-05-18T18:18:11.765Z,21.20
2019-05-18T18:20:41.778Z,21.00
2019-05-18T18:23:11.564Z,20.80
2019-05-18T18:25:41.217Z,20.70
2019-05-18T18:28:10.959Z,20.50
2019-05-18T18:30:40.392Z,20.50
2019-05-18T18:33:09.860Z,20.40
2019-05-18T18:35:39.761Z,20.30
2019-05-18T18:38:09.512Z,20.20
2019-05-18T18:40:38.940Z,20.20
2019-05-18T18:43:08.464Z,20.10
2019-05-18T18:45:37.913Z,20.00
2019-05-18T18:48:07.400Z,20.00
2019-05-18T18:50:37.867Z,20.00
2019-05-18T18:53:07.393Z,20.00
2019-05-18T18:55:38.678Z,20.00
2019-05-18T18:58:08.225Z,20.10
2019-05-18T19:00:37.995Z,20.20
2019-05-18T19:03:07.420Z,20.10
2019-05-18T19:05:37.189Z,19.90
2019-05-18T19:08:07.132Z,19.90
2019-05-18T19:10:36.656Z,20.00
2019-05-18T19:13:06.603Z,20.00
2019-05-18T19:15:36.685Z,19.90
2019-05-18T19:18:06.635Z,19.90
2019-05-18T19:20:36.189Z,19.80
2019-05-18T19:23:05.871Z,19.80
2019-05-18T19:25:35.738Z,19.70
2019-05-18T19:28:05.501Z,19.70
2019-05-18T19:30:35.139Z,19.70
2019-05-18T19:33:04.597Z,19.60
2019-05-18T19:35:34.035Z,19.50
2019-05-18T19:38:03.645Z,19.50
2019-05-18T19:40:33.272Z,19.50
2019-05-18T19:43:02.915Z,19.50
2019-05-18T19:45:32.695Z,19.50
2019-05-18T19:48:02.252Z,19.50
2019-05-18T19:50:31.857Z,19.40
2019-05-18T19:53:01.500Z,19.40
2019-05-18T19:55:31.155Z,19.20
2019-05-18T19:58:08.506Z,19.20
2019-05-18T20:00:32.172Z,19.20
2019-05-18T20:03:02.085Z,19.20
2019-05-18T20:05:31.599Z,19.10
2019-05-18T20:08:01.234Z,19.10
2019-05-18T20:10:31.017Z,19.00
2019-05-18T20:13:00.465Z,19.00
2019-05-18T20:15:30.218Z,19.00
2019-05-18T20:18:00.449Z,19.00
2019-05-18T20:20:30.122Z,19.00
2019-05-18T20:22:59.775Z,19.00
2019-05-18T20:25:29.280Z,18.90
2019-05-18T20:27:59.890Z,18.90
2019-05-18T20:30:29.488Z,18.90
2019-05-18T20:32:58.926Z,19.00
2019-05-18T20:35:28.853Z,19.00
2019-05-18T20:37:59.065Z,19.00
2019-05-18T20:40:28.815Z,18.80
2019-05-18T20:42:58.307Z,18.70
2019-05-18T20:45:29.482Z,18.70
2019-05-18T20:47:59.023Z,18.50
2019-05-18T20:50:28.468Z,18.50
2019-05-18T20:52:57.921Z,18.50
2019-05-18T20:55:45.005Z,18.40
2019-05-18T20:58:14.524Z,18.50
2019-05-18T21:00:44.342Z,18.40
2019-05-18T21:03:15.360Z,18.40
2019-05-18T21:05:44.866Z,18.30
2019-05-18T21:08:14.370Z,18.20
2019-05-18T21:10:44.835Z,18.10
2019-05-18T21:13:14.352Z,18.10
2019-05-18T21:15:44.437Z,18.10
2019-05-18T21:18:14.040Z,18.00
2019-05-18T21:20:44.138Z,17.90
2019-05-18T21:23:13.599Z,18.00
2019-05-18T21:25:43.236Z,17.90
2019-05-18T21:28:12.726Z,18.00
2019-05-18T21:30:42.914Z,18.00
2019-05-18T21:33:12.465Z,18.00
2019-05-18T21:35:43.666Z,18.00
2019-05-18T21:38:15.146Z,17.90
2019-05-18T21:40:44.857Z,17.80
2019-05-18T21:43:14.334Z,17.80
2019-05-18T21:45:44.251Z,17.80
2019-05-18T21:48:13.616Z,17.80
2019-05-18T21:50:43.688Z,17.90
2019-05-18T21:53:13.260Z,17.90
2019-05-18T21:55:43.248Z,17.90
2019-05-18T21:58:13.409Z,17.80
2019-05-18T22:00:43.672Z,17.70
2019-05-18T22:03:13.305Z,17.60
2019-05-18T22:05:43.511Z,17.40
2019-05-18T22:08:13.056Z,17.40
2019-05-18T22:10:42.537Z,17.40
2019-05-18T22:13:12.395Z,17.40
2019-05-18T22:15:42.020Z,17.40
2019-05-18T22:18:23.634Z,17.40
2019-05-18T22:20:44.902Z,17.20
2019-05-18T22:23:14.545Z,17.20
2019-05-18T22:25:44.186Z,17.10
2019-05-18T22:28:13.918Z,17.10
2019-05-18T22:30:43.436Z,17.30
2019-05-18T22:33:13.116Z,17.30
2019-05-18T22:35:43.047Z,17.10
2019-05-18T22:38:12.479Z,16.90
2019-05-18T22:40:42.051Z,16.90
2019-05-18T22:43:11.517Z,16.90
2019-05-18T22:45:41.191Z,16.80
2019-05-18T22:48:10.748Z,16.80
2019-05-18T22:50:41.521Z,16.80
2019-05-18T22:53:10.959Z,16.80
2019-05-18T22:55:42.174Z,16.80
2019-05-18T22:58:11.572Z,16.60
2019-05-18T23:00:42.837Z,16.50
2019-05-18T23:03:13.367Z,16.60
2019-05-18T23:05:42.920Z,16.60
2019-05-18T23:08:12.499Z,16.60
2019-05-18T23:10:41.942Z,16.50
2019-05-18T23:13:12.113Z,16.40
2019-05-18T23:15:41.562Z,16.40
2019-05-18T23:18:11.026Z,16.50
2019-05-18T23:20:40.407Z,16.40
2019-05-18T23:23:09.771Z,16.40
2019-05-18T23:25:40.888Z,16.40
2019-05-18T23:28:10.390Z,16.30
2019-05-18T23:30:39.930Z,16.30
2019-05-18T23:33:09.266Z,16.30
2019-05-18T23:35:39.022Z,16.30
2019-05-18T23:38:11.500Z,16.30
2019-05-18T23:40:41.086Z,16.20
2019-05-18T23:43:10.927Z,16.20
2019-05-18T23:45:40.300Z,16.20
2019-05-18T23:48:09.997Z,16.20
2019-05-18T23:50:39.387Z,16.30
2019-05-18T23:53:08.879Z,15.90
2019-05-18T23:55:38.278Z,15.90
2019-05-18T23:58:08.049Z,15.90
